Terminal Aerodrome Forecast
Issued by NWS Jackson, MS

Home | Current Version | Previous Version | Text Only | Print | Product List | Glossary On
Versions: 1 2 3 4 5 6 7 8 9 10 11 12 13 14
000
FTUS44 KJAN 191700
TAFGLH
TAF
KGLH 191730Z 1918/2018 07007KT P6SM SCT040
     FM200000 08003KT P6SM FEW250
     FM201100 VRB03KT 5SM BR FEW250
     FM201330 14006KT P6SM FEW030 SCT250=

USA.gov is the U.S. government's official web portal to all federal, state and local government web resources and services.